Time;durP1;ratioP1;P1;durP2;ratioP2;P2;SDS_P1;SDS_P2;PMS_P1;PMS_P2;Temp;Humidity;BMP_temperature;BMP_pressure;BME280_temperature;BME280_humidity;BME280_pressure;Samples;Min_cycle;Max_cycle;Signal;HPM_P1;HPM_P2
2022/07/02 00:01:05;;;;;;;3.22;2.25;;;13.00;99.90;;;;;;5044333;28;20049;-72
2022/07/02 00:03:36;;;;;;;5.25;2.70;;;13.00;99.90;;;;;;5049969;28;20033;-72
2022/07/02 00:06:05;;;;;;;4.25;2.95;;;13.00;99.90;;;;;;5055030;28;20051;-72
2022/07/02 00:08:33;;;;;;;2.55;2.00;;;13.00;99.90;;;;;;5051906;28;20037;-72
2022/07/02 00:11:03;;;;;;;2.03;1.67;;;13.00;99.90;;;;;;5052945;28;20117;-72
2022/07/02 00:13:30;;;;;;;5.38;1.48;;;13.00;99.90;;;;;;5049138;28;20044;-72
2022/07/02 00:15:58;;;;;;;2.00;1.20;;;13.00;99.90;;;;;;5055327;28;20406;-73
2022/07/02 00:18:24;;;;;;;;;;;13.00;99.90;;;;;;5058973;28;20041;-73
2022/07/02 00:20:52;;;;;;;0.77;0.40;;;13.00;99.90;;;;;;5052867;28;19928;-73
2022/07/02 00:23:19;;;;;;;1.08;0.55;;;12.90;99.90;;;;;;5052628;28;20041;-73
2022/07/02 00:25:56;;;;;;;1.05;0.77;;;12.90;99.90;;;;;;5056995;28;20048;-73
2022/07/02 00:28:25;;;;;;;0.70;0.70;;;12.90;99.90;;;;;;5053508;28;20794;-73
2022/07/02 00:30:52;;;;;;;1.25;0.70;;;12.90;99.90;;;;;;5037637;28;20053;-73
2022/07/02 00:33:20;;;;;;;0.60;0.52;;;13.00;99.90;;;;;;5028338;28;20037;-73
2022/07/02 00:35:47;;;;;;;0.75;0.52;;;12.90;99.90;;;;;;5055849;28;20040;-72
2022/07/02 00:38:14;;;;;;;4.30;0.63;;;12.90;99.90;;;;;;5054399;28;20041;-73
2022/07/02 00:40:42;;;;;;;0.98;0.63;;;12.80;99.90;;;;;;5053232;28;20041;-73
2022/07/02 00:43:10;;;;;;;0.77;0.52;;;12.80;99.90;;;;;;5052860;28;20052;-73
2022/07/02 00:45:38;;;;;;;0.95;0.60;;;12.80;99.90;;;;;;5035886;28;20104;-73
2022/07/02 00:48:05;;;;;;;1.15;0.57;;;12.80;99.90;;;;;;5053612;28;20047;-73
2022/07/02 00:50:32;;;;;;;1.77;0.85;;;12.70;99.90;;;;;;5053110;28;20497;-73
2022/07/02 00:52:58;;;;;;;0.82;0.70;;;12.80;99.90;;;;;;5052471;28;20516;-74
2022/07/02 00:55:25;;;;;;;1.27;0.50;;;12.80;99.90;;;;;;5053637;28;20045;-73
2022/07/02 00:57:52;;;;;;;1.90;0.70;;;12.80;99.90;;;;;;5053165;28;20108;-73
2022/07/02 01:00:19;;;;;;;0.90;0.60;;;12.80;99.90;;;;;;5051697;28;20045;-73
2022/07/02 01:02:48;;;;;;;0.95;0.60;;;12.80;99.90;;;;;;5053436;28;20490;-73
2022/07/02 01:05:19;;;;;;;1.90;0.85;;;12.80;99.90;;;;;;5053520;28;20041;-73
2022/07/02 01:10:45;;;;;;;1.00;0.60;;;12.80;99.90;;;;;;5049307;28;20037;-72
2022/07/02 01:13:12;;;;;;;0.73;0.60;;;12.50;99.90;;;;;;5031744;28;20057;-73
2022/07/02 01:15:40;;;;;;;2.35;0.60;;;12.50;99.90;;;;;;5033272;28;20060;-73
2022/07/02 01:18:07;;;;;;;;;;;12.50;99.90;;;;;;5050296;28;20037;-73
2022/07/02 01:20:34;;;;;;;1.27;0.50;;;12.40;99.90;;;;;;5052576;28;19939;-73
2022/07/02 01:23:01;;;;;;;0.90;0.60;;;12.40;99.90;;;;;;5053096;28;20041;-73
2022/07/02 01:25:28;;;;;;;1.02;0.60;;;12.40;99.90;;;;;;5051844;28;20033;-73
2022/07/02 01:27:54;;;;;;;3.83;0.85;;;12.40;99.90;;;;;;5052511;28;20493;-73
2022/07/02 01:30:21;;;;;;;0.95;0.40;;;12.40;99.90;;;;;;5052614;28;20040;-73
2022/07/02 01:32:48;;;;;;;0.73;0.50;;;12.40;99.90;;;;;;5052773;28;20041;-73
2022/07/02 01:35:15;;;;;;;0.68;0.40;;;12.40;99.90;;;;;;5051700;28;20037;-74
2022/07/02 01:37:41;;;;;;;2.08;0.32;;;12.30;99.90;;;;;;5052599;28;20037;-74
2022/07/02 01:40:09;;;;;;;1.70;0.60;;;12.30;99.90;;;;;;5052269;28;20052;-73
2022/07/02 01:42:38;;;;;;;0.68;0.50;;;12.20;99.90;;;;;;5051324;28;20025;-73
2022/07/02 01:45:06;;;;;;;1.67;0.50;;;12.10;99.90;;;;;;5052738;28;20409;-73
2022/07/02 01:47:32;;;;;;;0.50;0.50;;;12.20;99.90;;;;;;5052561;28;20056;-73
2022/07/02 01:49:59;;;;;;;2.78;0.55;;;12.10;99.90;;;;;;5051934;28;20045;-74
2022/07/02 01:52:26;;;;;;;1.30;0.60;;;12.20;99.90;;;;;;5051495;28;20494;-74
2022/07/02 01:54:53;;;;;;;0.80;0.50;;;12.20;99.90;;;;;;5043795;28;20041;-73
2022/07/02 01:57:20;;;;;;;1.00;0.60;;;12.20;99.90;;;;;;5052379;28;20049;-73
2022/07/02 01:59:47;;;;;;;0.88;0.60;;;12.20;99.90;;;;;;5051099;28;20072;-73
2022/07/02 02:02:15;;;;;;;2.15;0.55;;;12.30;99.90;;;;;;5051993;28;20036;-73
2022/07/02 02:04:41;;;;;;;0.80;0.80;;;12.30;99.90;;;;;;5052211;28;20048;-73
2022/07/02 02:07:09;;;;;;;4.78;1.60;;;12.40;99.90;;;;;;5052213;28;20077;-73
2022/07/02 02:09:36;;;;;;;0.75;0.63;;;12.40;99.90;;;;;;5050573;28;20048;-73
2022/07/02 02:12:03;;;;;;;3.83;2.00;;;12.40;99.90;;;;;;5043637;28;20041;-73
2022/07/02 02:14:30;;;;;;;1.92;1.20;;;12.40;99.90;;;;;;5051913;28;20045;-73
2022/07/02 02:17:23;;;;;;;1.00;0.80;;;12.40;99.90;;;;;;5053371;28;20044;-72
2022/07/02 02:20:27;;;;;;;0.73;0.50;;;12.40;99.90;;;;;;4928844;29;20083;-63
2022/07/02 02:22:54;;;;;;;1.23;0.45;;;12.40;99.90;;;;;;4941696;29;20541;-62
2022/07/02 02:25:21;;;;;;;4.95;0.90;;;12.40;99.90;;;;;;4951352;28;20447;-64
2022/07/02 02:27:48;;;;;;;2.58;0.90;;;12.40;99.90;;;;;;5019265;28;20061;-64
2022/07/02 02:30:14;;;;;;;1.88;0.77;;;12.30;99.90;;;;;;5045074;28;20040;-64
2022/07/02 02:32:41;;;;;;;1.88;1.10;;;12.40;99.90;;;;;;5029444;28;20046;-64
2022/07/02 02:35:08;;;;;;;3.15;0.80;;;12.40;99.90;;;;;;5031366;28;20042;-64
2022/07/02 02:37:35;;;;;;;1.02;0.80;;;12.40;99.90;;;;;;5048095;28;20044;-64
2022/07/02 02:40:02;;;;;;;1.65;1.23;;;12.40;99.90;;;;;;5051267;28;20045;-64
2022/07/02 02:42:28;;;;;;;2.30;1.02;;;12.40;99.90;;;;;;5051928;28;20464;-64
2022/07/02 02:44:55;;;;;;;1.65;1.27;;;12.40;99.90;;;;;;5042908;28;20064;-63
2022/07/02 02:47:23;;;;;;;1.50;0.98;;;12.30;99.90;;;;;;5031660;28;20046;-63
2022/07/02 02:49:49;;;;;;;0.88;0.40;;;12.30;99.90;;;;;;5031616;28;20060;-63
2022/07/02 02:52:16;;;;;;;2.28;0.50;;;12.30;99.90;;;;;;5051627;28;20053;-63
2022/07/02 02:54:43;;;;;;;2.25;0.45;;;12.30;99.90;;;;;;5040097;28;20041;-63
2022/07/02 02:57:10;;;;;;;2.17;0.65;;;12.30;99.90;;;;;;5031600;28;20037;-63
2022/07/02 02:59:36;;;;;;;1.17;0.50;;;12.20;99.90;;;;;;5033787;28;20065;-63
2022/07/02 03:02:03;;;;;;;1.85;0.43;;;12.20;99.90;;;;;;5051138;28;20401;-63
2022/07/02 03:04:30;;;;;;;1.23;0.28;;;12.10;99.90;;;;;;5048010;28;20056;-63
2022/07/02 03:06:57;;;;;;;1.88;0.70;;;12.10;99.90;;;;;;5042957;28;20044;-63
2022/07/02 03:09:23;;;;;;;2.13;0.80;;;12.10;99.90;;;;;;5051374;28;20531;-63
2022/07/02 03:11:50;;;;;;;1.42;0.65;;;12.10;99.90;;;;;;5048660;28;20064;-63
2022/07/02 03:14:17;;;;;;;2.25;0.50;;;12.10;99.90;;;;;;5042950;28;20041;-63
2022/07/02 03:16:44;;;;;;;2.50;0.60;;;12.10;99.90;;;;;;5051440;28;20494;-63
2022/07/02 03:19:11;;;;;;;2.70;0.95;;;12.20;99.90;;;;;;5050882;28;20528;-63
2022/07/02 03:21:37;;;;;;;0.50;0.50;;;12.20;99.90;;;;;;5046074;28;20037;-63
2022/07/02 03:24:04;;;;;;;1.48;0.70;;;12.20;99.90;;;;;;5041424;28;20045;-63
2022/07/02 03:26:31;;;;;;;2.20;1.00;;;12.20;99.90;;;;;;5051410;28;20049;-63
2022/07/02 03:28:58;;;;;;;1.42;0.82;;;12.20;99.90;;;;;;5051054;28;20442;-63
2022/07/02 03:31:25;;;;;;;3.08;0.90;;;12.20;99.90;;;;;;5047233;28;20049;-63
2022/07/02 03:33:52;;;;;;;2.33;0.60;;;12.20;99.90;;;;;;5025057;28;20095;-63
2022/07/02 03:36:18;;;;;;;1.23;0.68;;;12.20;99.90;;;;;;5052657;28;20037;-63
2022/07/02 03:38:45;;;;;;;0.38;0.38;;;12.20;99.90;;;;;;5055262;28;20045;-63
2022/07/02 03:41:12;;;;;;;3.85;0.50;;;12.00;99.90;;;;;;5044186;28;20049;-63
2022/07/02 03:43:39;;;;;;;0.98;0.50;;;12.00;99.90;;;;;;5037943;28;20045;-63
2022/07/02 03:46:06;;;;;;;4.60;0.50;;;12.00;99.90;;;;;;5055082;28;20045;-63
2022/07/02 03:48:32;;;;;;;2.22;0.60;;;12.00;99.90;;;;;;5055027;28;20045;-63
2022/07/02 03:50:59;;;;;;;3.88;1.35;;;12.00;99.90;;;;;;5049142;28;20044;-63
2022/07/02 03:53:26;;;;;;;5.47;0.82;;;12.00;99.90;;;;;;5034787;28;20568;-63
2022/07/02 03:55:53;;;;;;;3.60;0.82;;;12.00;99.90;;;;;;5054593;28;20041;-63
2022/07/02 03:58:19;;;;;;;1.08;0.70;;;12.10;99.90;;;;;;5055049;28;20092;-63
2022/07/02 04:00:46;;;;;;;0.57;0.45;;;12.10;99.90;;;;;;5043294;28;20033;-63
2022/07/02 04:03:13;;;;;;;0.63;0.52;;;12.20;99.90;;;;;;5034652;28;20058;-63
2022/07/02 04:05:40;;;;;;;0.80;0.40;;;12.10;99.90;;;;;;5054701;28;20052;-63
2022/07/02 04:08:06;;;;;;;1.63;0.52;;;12.10;99.90;;;;;;5046230;28;20068;-63
2022/07/02 04:10:33;;;;;;;0.60;0.45;;;12.20;99.90;;;;;;5045781;28;20036;-63
2022/07/02 04:13:01;;;;;;;0.47;0.40;;;12.20;99.90;;;;;;5054824;28;20045;-63
2022/07/02 04:15:28;;;;;;;1.58;0.50;;;12.20;99.90;;;;;;5048704;28;20053;-63
2022/07/02 04:17:55;;;;;;;1.15;0.70;;;12.10;99.90;;;;;;5034181;28;20057;-63
2022/07/02 04:20:21;;;;;;;1.13;0.50;;;12.20;99.90;;;;;;5034204;28;20046;-63
2022/07/02 04:22:48;;;;;;;1.33;0.80;;;12.20;99.90;;;;;;5034396;28;20045;-63
2022/07/02 04:25:15;;;;;;;1.13;1.00;;;12.20;99.90;;;;;;5036697;28;20037;-63
2022/07/02 04:27:41;;;;;;;2.40;1.00;;;12.40;99.90;;;;;;5051421;28;20044;-63
2022/07/02 04:30:09;;;;;;;1.25;1.10;;;12.50;99.90;;;;;;5054050;28;20056;-63
2022/07/02 04:32:37;;;;;;;3.22;1.35;;;12.50;99.90;;;;;;5051522;28;20493;-63
2022/07/02 04:35:05;;;;;;;2.10;1.50;;;12.50;99.90;;;;;;5038056;28;20052;-63
2022/07/02 04:37:31;;;;;;;2.00;1.10;;;12.60;99.90;;;;;;5054116;28;20052;-63
2022/07/02 04:39:58;;;;;;;1.98;1.15;;;12.60;99.90;;;;;;5047420;28;20040;-63
2022/07/02 04:42:25;;;;;;;1.25;0.82;;;12.70;99.90;;;;;;5045586;28;20043;-63
2022/07/02 04:44:52;;;;;;;2.88;0.90;;;12.60;99.90;;;;;;5054065;28;20056;-63
2022/07/02 04:47:18;;;;;;;0.88;0.80;;;12.70;99.90;;;;;;5053727;28;20044;-63
2022/07/02 04:49:45;;;;;;;0.98;0.77;;;12.70;99.90;;;;;;5047173;28;20045;-63
2022/07/02 04:52:12;;;;;;;1.13;0.70;;;12.70;99.90;;;;;;5045022;28;20040;-63
2022/07/02 04:54:39;;;;;;;1.48;0.88;;;12.70;99.90;;;;;;5053929;28;20048;-63
2022/07/02 04:57:06;;;;;;;2.42;0.80;;;12.70;99.90;;;;;;5053854;28;20049;-63
2022/07/02 04:59:32;;;;;;;1.70;1.40;;;12.80;99.90;;;;;;5042697;28;20486;-63
2022/07/02 05:02:05;;;;;;;5.05;1.70;;;12.80;99.90;;;;;;5037508;28;20106;-63
2022/07/02 05:04:31;;;;;;;1.85;1.52;;;12.90;99.90;;;;;;5053495;28;20044;-63
2022/07/02 05:06:58;;;;;;;3.03;1.15;;;12.90;99.90;;;;;;5051128;28;20067;-63
2022/07/02 05:09:25;;;;;;;1.50;1.20;;;13.00;99.90;;;;;;5041646;28;20042;-63
2022/07/02 05:11:52;;;;;;;2.65;1.90;;;13.10;99.90;;;;;;5033930;28;20501;-63
2022/07/02 05:14:18;;;;;;;4.53;1.30;;;13.20;99.90;;;;;;5053358;28;20505;-63
2022/07/02 05:16:45;;;;;;;3.83;1.10;;;13.20;99.90;;;;;;5045825;28;20516;-63
2022/07/02 05:19:12;;;;;;;4.53;2.42;;;13.30;99.90;;;;;;5033282;28;20041;-63
2022/07/02 05:21:41;;;;;;;3.65;1.35;;;13.30;99.90;;;;;;5052880;28;20063;-64
2022/07/02 05:24:08;;;;;;;1.40;0.80;;;13.40;99.90;;;;;;5052526;28;20048;-63
2022/07/02 05:26:35;;;;;;;2.80;1.80;;;13.50;99.90;;;;;;5041209;28;20049;-63
2022/07/02 05:29:02;;;;;;;2.67;1.58;;;13.40;99.90;;;;;;5013537;28;20506;-63
2022/07/02 05:31:29;;;;;;;2.10;0.93;;;13.40;99.90;;;;;;5013097;28;20049;-63
2022/07/02 05:33:56;;;;;;;1.08;0.95;;;13.30;99.90;;;;;;5035284;28;20099;-63
2022/07/02 05:36:23;;;;;;;1.77;1.25;;;13.30;99.90;;;;;;5047358;28;20045;-62
2022/07/02 05:38:49;;;;;;;1.63;1.00;;;13.40;99.90;;;;;;5053037;28;20056;-62
2022/07/02 05:41:16;;;;;;;3.35;1.75;;;13.50;99.90;;;;;;5049881;28;20052;-62
2022/07/02 05:43:43;;;;;;;3.70;1.65;;;13.50;99.90;;;;;;5041636;28;20049;-62
2022/07/02 05:46:10;;;;;;;3.35;1.73;;;13.60;99.90;;;;;;5052756;28;20037;-62
2022/07/02 05:48:37;;;;;;;5.63;1.60;;;13.60;99.90;;;;;;5052748;28;20045;-62
2022/07/02 05:51:03;;;;;;;3.35;2.08;;;13.70;99.90;;;;;;5038447;28;20042;-62
2022/07/02 05:53:30;;;;;;;4.32;1.73;;;13.80;99.90;;;;;;5048344;28;20486;-62
2022/07/02 05:55:57;;;;;;;3.03;2.10;;;13.90;99.90;;;;;;5052495;28;20497;-62
2022/07/02 05:58:24;;;;;;;2.97;1.83;;;14.00;99.90;;;;;;5050835;28;20059;-62
2022/07/02 06:00:50;;;;;;;2.38;1.90;;;14.10;99.90;;;;;;5041955;28;20029;-62
2022/07/02 06:03:17;;;;;;;2.33;1.85;;;14.10;99.90;;;;;;5052871;28;20433;-63
2022/07/02 06:08:30;;;;;;;2.63;1.90;;;14.20;99.90;;;;;;5047918;28;20398;-63
2022/07/02 06:10:57;;;;;;;2.60;2.20;;;14.20;99.90;;;;;;5042728;28;20098;-63
2022/07/02 06:13:23;;;;;;;3.95;2.10;;;14.30;99.90;;;;;;5052482;28;20041;-63
2022/07/02 06:15:50;;;;;;;3.28;2.03;;;14.30;99.90;;;;;;5052256;28;20509;-62
2022/07/02 06:18:17;;;;;;;2.58;2.08;;;14.30;99.90;;;;;;5042509;28;20045;-63
2022/07/02 06:20:44;;;;;;;4.70;2.22;;;14.30;99.90;;;;;;5037625;28;20053;-62
2022/07/02 06:23:11;;;;;;;4.28;2.30;;;14.40;99.90;;;;;;5032414;28;20049;-62
2022/07/02 06:25:37;;;;;;;2.92;2.28;;;14.40;99.90;;;;;;5031639;28;20045;-63
2022/07/02 06:28:04;;;;;;;3.65;2.30;;;14.50;99.90;;;;;;5032110;28;20053;-62
2022/07/02 06:30:31;;;;;;;3.72;2.28;;;14.50;99.90;;;;;;5031138;28;20052;-63
2022/07/02 06:32:58;;;;;;;2.20;1.90;;;14.60;99.90;;;;;;5032132;28;20060;-63
2022/07/02 06:35:25;;;;;;;4.10;1.85;;;14.70;99.90;;;;;;5031525;28;20045;-63
2022/07/02 06:37:53;;;;;;;2.03;1.77;;;14.90;99.90;;;;;;5043387;28;20608;-63
2022/07/02 06:40:20;;;;;;;5.57;2.17;;;15.00;99.90;;;;;;5049447;28;20064;-63
2022/07/02 06:42:47;;;;;;;3.17;1.98;;;15.10;99.90;;;;;;5030654;28;20076;-63
2022/07/02 06:45:14;;;;;;;4.55;2.20;;;15.10;99.90;;;;;;5038164;28;20061;-63
2022/07/02 06:47:42;;;;;;;;;;;15.10;99.90;;;;;;5032187;28;20048;-63
2022/07/02 06:50:10;;;;;;;4.95;1.92;;;15.20;99.90;;;;;;5031356;28;19921;-63
2022/07/02 06:52:37;;;;;;;2.92;1.73;;;15.30;99.90;;;;;;5030335;28;20113;-63
2022/07/02 06:55:04;;;;;;;5.22;2.13;;;15.30;99.90;;;;;;5031588;28;20046;-63
2022/07/02 06:57:31;;;;;;;3.47;1.83;;;15.50;99.90;;;;;;5031593;28;20410;-63
2022/07/02 06:59:59;;;;;;;2.55;1.55;;;15.70;99.90;;;;;;5031366;28;20648;-63
2022/07/02 07:02:25;;;;;;;5.43;1.92;;;15.70;99.90;;;;;;5028557;28;20048;-63
2022/07/02 07:04:52;;;;;;;2.83;1.50;;;15.70;99.90;;;;;;5031091;28;20061;-63
2022/07/02 07:07:25;;;;;;;3.42;1.67;;;15.90;99.90;;;;;;5019883;28;20037;-63
2022/07/02 07:09:52;;;;;;;1.58;1.42;;;16.10;99.90;;;;;;5014217;28;20430;-63
2022/07/02 07:12:18;;;;;;;1.42;1.33;;;16.40;99.90;;;;;;5027508;28;20116;-63
2022/07/02 07:14:45;;;;;;;4.25;1.65;;;16.70;99.90;;;;;;5013449;28;20048;-63
2022/07/02 07:17:12;;;;;;;1.65;1.52;;;16.60;99.90;;;;;;5027482;28;20538;-63
2022/07/02 07:19:38;;;;;;;5.03;1.60;;;16.70;99.90;;;;;;5030530;28;20037;-63
2022/07/02 07:22:05;;;;;;;2.28;1.63;;;16.80;99.90;;;;;;5030161;28;20041;-63
2022/07/02 07:24:32;;;;;;;4.65;1.52;;;16.90;99.90;;;;;;5030952;28;20041;-63
2022/07/02 07:26:59;;;;;;;2.10;1.48;;;16.90;99.90;;;;;;5027907;28;20494;-63
2022/07/02 07:29:25;;;;;;;3.50;1.40;;;17.00;99.90;;;;;;5030476;28;20489;-63
2022/07/02 07:31:52;;;;;;;1.83;1.60;;;17.20;99.90;;;;;;5012338;28;20041;-63
2022/07/02 07:34:19;;;;;;;2.42;1.58;;;17.10;99.90;;;;;;5030842;28;20048;-63
2022/07/02 07:36:46;;;;;;;1.38;1.27;;;17.50;99.90;;;;;;5030768;28;20057;-64
2022/07/02 07:39:13;;;;;;;3.08;1.42;;;17.70;99.90;;;;;;5039491;28;20042;-64
2022/07/02 07:41:40;;;;;;;1.48;1.27;;;17.90;99.90;;;;;;5029995;28;20049;-64
2022/07/02 07:44:06;;;;;;;2.88;1.45;;;17.70;99.90;;;;;;5028243;28;20041;-63
2022/07/02 07:46:34;;;;;;;1.60;1.50;;;17.60;99.90;;;;;;5030061;28;20045;-64
2022/07/02 07:49:01;;;;;;;3.55;1.38;;;17.40;99.90;;;;;;5029938;28;20090;-64
2022/07/02 07:51:28;;;;;;;2.53;1.30;;;17.30;99.90;;;;;;5029636;28;20046;-64
2022/07/02 07:53:55;;;;;;;;;;;17.20;99.90;;;;;;5028929;28;20045;-64
2022/07/02 07:56:22;;;;;;;3.78;1.30;;;17.30;99.90;;;;;;5027243;28;20366;-64
2022/07/02 07:58:49;;;;;;;2.00;1.80;;;17.30;99.90;;;;;;5019476;28;20041;-63
2022/07/02 08:01:16;;;;;;;3.92;2.10;;;17.40;99.90;;;;;;5030695;28;20045;-64
2022/07/02 08:03:43;;;;;;;2.42;1.67;;;17.00;99.90;;;;;;5013379;28;20053;-64
2022/07/02 08:06:10;;;;;;;4.90;1.40;;;16.90;99.90;;;;;;5011397;28;20049;-64
2022/07/02 08:08:36;;;;;;;1.70;1.60;;;16.70;99.90;;;;;;5018293;28;20056;-63
2022/07/02 08:11:03;;;;;;;1.48;1.38;;;16.40;99.90;;;;;;5030345;28;20046;-64
2022/07/02 08:13:30;;;;;;;;;;;16.40;99.90;;;;;;5051181;28;20049;-64
2022/07/02 08:15:59;;;;;;;1.77;1.67;;;16.50;99.90;;;;;;5050434;28;19928;-64
2022/07/02 08:18:27;;;;;;;2.78;1.45;;;16.30;99.90;;;;;;5039800;28;20124;-64
2022/07/02 08:20:54;;;;;;;2.00;1.58;;;16.20;99.90;;;;;;5049329;28;20079;-64
2022/07/02 08:23:20;;;;;;;2.17;1.67;;;16.20;99.90;;;;;;5053693;28;20481;-64
2022/07/02 08:25:47;;;;;;;1.70;1.60;;;16.30;99.90;;;;;;5048492;28;20056;-64
2022/07/02 08:28:14;;;;;;;1.70;1.60;;;16.60;99.90;;;;;;5047759;28;20044;-64
2022/07/02 08:30:41;;;;;;;2.75;1.85;;;16.70;99.90;;;;;;5053684;28;20045;-64
2022/07/02 08:33:09;;;;;;;2.65;1.83;;;16.90;99.90;;;;;;5059492;22;20082;-64
2022/07/02 08:35:35;;;;;;;3.88;1.80;;;17.20;99.90;;;;;;5052621;28;20048;-65
2022/07/02 08:38:02;;;;;;;1.98;1.58;;;17.40;99.90;;;;;;5053865;28;20048;-64
2022/07/02 08:40:29;;;;;;;4.30;1.70;;;17.60;99.90;;;;;;5053788;28;20045;-64
2022/07/02 08:42:59;;;;;;;4.20;1.90;;;17.60;99.90;;;;;;5052536;28;20052;-65
2022/07/02 08:45:30;;;;;;;2.20;1.20;;;17.80;99.90;;;;;;5055252;28;20441;-65
2022/07/02 08:47:58;;;;;;;3.28;1.48;;;17.90;99.90;;;;;;5073774;28;20048;-64
2022/07/02 08:50:26;;;;;;;4.20;1.63;;;18.00;99.90;;;;;;5073377;28;20112;-65
2022/07/02 08:52:53;;;;;;;1.35;1.25;;;18.10;99.90;;;;;;5056161;28;20041;-65
2022/07/02 08:55:22;;;;;;;2.75;1.40;;;18.30;99.90;;;;;;5065229;28;20044;-65
2022/07/02 08:57:50;;;;;;;1.40;1.30;;;18.40;99.90;;;;;;5065428;28;20471;-64
2022/07/02 09:00:20;;;;;;;1.75;1.65;;;18.60;99.90;;;;;;5073186;28;20040;-65
2022/07/02 09:02:56;;;;;;;2.45;1.50;;;18.80;99.90;;;;;;5073765;28;20502;-65
2022/07/02 09:05:25;;;;;;;1.85;1.27;;;19.00;99.90;;;;;;5062737;28;20409;-65
2022/07/02 09:07:55;;;;;;;1.73;1.60;;;19.10;99.90;;;;;;5043810;28;20045;-65
2022/07/02 09:10:23;;;;;;;2.88;1.55;;;19.20;99.90;;;;;;5043916;28;20045;-65
2022/07/02 09:12:52;;;;;;;1.42;1.30;;;19.20;99.90;;;;;;5044489;28;20041;-65
2022/07/02 09:15:19;;;;;;;1.90;1.35;;;19.10;99.90;;;;;;5060605;28;20041;-65
2022/07/02 09:17:46;;;;;;;1.27;1.17;;;19.10;99.90;;;;;;5071311;28;20048;-65
2022/07/02 09:20:13;;;;;;;4.32;1.50;;;19.10;99.90;;;;;;5054924;28;20049;-65
2022/07/02 09:22:43;;;;;;;2.60;1.42;;;19.20;99.90;;;;;;5069519;28;20043;-65
2022/07/02 09:25:16;;;;;;;1.55;1.20;;;19.30;99.90;;;;;;5066115;28;20041;-65
2022/07/02 09:27:46;;;;;;;2.10;1.60;;;19.20;99.90;;;;;;5073366;28;20041;-64
2022/07/02 09:30:18;;;;;;;5.55;2.03;;;19.20;99.90;;;;;;5072739;28;20036;-64
2022/07/02 09:33:28;;;;;;;1.92;1.52;;;19.40;99.90;;;;;;5063407;28;20041;-64
2022/07/02 09:35:38;;;;;;;1.70;1.50;;;19.60;99.90;;;;;;5063736;28;20494;-65
2022/07/02 09:38:10;;;;;;;3.30;1.38;;;19.60;99.90;;;;;;5044592;28;20052;-64
2022/07/02 09:40:38;;;;;;;2.95;1.80;;;19.60;99.90;;;;;;5032268;28;20041;-65
2022/07/02 09:43:05;;;;;;;1.77;1.65;;;19.60;99.90;;;;;;5037307;28;20064;-65
2022/07/02 09:45:32;;;;;;;1.48;1.38;;;19.60;99.90;;;;;;5052721;28;20048;-64
2022/07/02 09:48:02;;;;;;;4.53;1.35;;;19.70;99.90;;;;;;5034413;28;20040;-65
2022/07/02 09:50:36;;;;;;;1.60;1.50;;;19.80;99.90;;;;;;5060487;28;20048;-64
2022/07/02 09:53:03;;;;;;;1.88;1.48;;;19.80;99.90;;;;;;5042252;28;20124;-65
2022/07/02 09:55:32;;;;;;;2.03;1.27;;;19.80;99.90;;;;;;5033609;28;20061;-64
2022/07/02 09:58:01;;;;;;;2.10;1.30;;;20.00;99.90;;;;;;5025026;28;20662;-63
2022/07/02 10:00:31;;;;;;;1.30;1.00;;;20.10;99.90;;;;;;5033735;28;20053;-62
2022/07/02 10:03:00;;;;;;;1.40;1.15;;;20.30;99.90;;;;;;5048892;28;20076;-65
2022/07/02 10:05:31;;;;;;;1.40;1.30;;;20.40;99.90;;;;;;5045051;28;20161;-64
2022/07/02 10:08:00;;;;;;;1.17;1.10;;;20.40;99.90;;;;;;5048131;28;20063;-68
2022/07/02 10:10:35;;;;;;;2.90;1.23;;;20.20;99.90;;;;;;5047192;28;20382;-65
2022/07/02 10:13:02;;;;;;;2.70;1.20;;;20.30;99.90;;;;;;5040490;28;20037;-63
2022/07/02 10:15:31;;;;;;;4.68;1.50;;;20.40;99.90;;;;;;5051035;28;20049;-62
2022/07/02 10:18:03;;;;;;;2.50;1.30;;;20.40;99.90;;;;;;5043230;28;20402;-62
2022/07/02 10:20:30;;;;;;;2.08;1.50;;;20.60;99.90;;;;;;5046229;28;20079;-66
2022/07/02 10:23:00;;;;;;;2.67;1.67;;;20.80;99.90;;;;;;5049332;28;20045;-66
2022/07/02 10:25:27;;;;;;;2.17;1.98;;;21.00;99.90;;;;;;5051003;28;20056;-66
2022/07/02 10:27:55;;;;;;;1.73;1.63;;;20.90;99.90;;;;;;5044003;28;20045;-66
2022/07/02 10:30:31;;;;;;;1.85;1.63;;;21.00;99.90;;;;;;5056404;28;20040;-66
2022/07/02 10:33:10;;;;;;;5.25;1.38;;;21.00;99.90;;;;;;5049052;28;20496;-66
2022/07/02 10:35:39;;;;;;;2.67;1.23;;;21.10;99.90;;;;;;5051418;28;20501;-66
2022/07/02 10:38:06;;;;;;;2.22;1.05;;;21.30;99.90;;;;;;5046235;28;20445;-64
2022/07/02 10:40:33;;;;;;;3.25;1.40;;;21.40;99.90;;;;;;5041801;28;20032;-63
2022/07/02 10:43:01;;;;;;;;;;;21.50;99.90;;;;;;5048382;28;20160;-63
2022/07/02 10:45:28;;;;;;;1.60;1.35;;;21.60;99.90;;;;;;5043220;28;20374;-64
2022/07/02 10:48:02;;;;;;;1.17;1.08;;;21.70;99.90;;;;;;5049379;28;20075;-64
2022/07/02 10:50:35;;;;;;;2.28;1.15;;;21.80;99.90;;;;;;5049756;28;20045;-64
2022/07/02 10:53:17;;;;;;;1.83;1.35;;;22.00;99.90;;;;;;5047581;28;20574;-61
2022/07/02 10:56:04;;;;;;;2.35;1.23;;;22.20;99.90;;;;;;5045775;28;20087;-64
2022/07/02 10:58:37;;;;;;;3.03;1.10;;;22.20;99.90;;;;;;5067621;28;20443;-64
2022/07/02 11:01:20;;;;;;;1.88;0.90;;;22.20;99.90;;;;;;5061538;28;20052;-63
2022/07/02 11:03:59;;;;;;;1.08;1.00;;;22.20;99.90;;;;;;5070765;28;20056;-63
2022/07/02 11:06:27;;;;;;;1.85;0.80;;;22.30;99.90;;;;;;5064957;28;20049;-61
2022/07/02 11:08:57;;;;;;;0.95;0.85;;;22.30;99.90;;;;;;5062277;28;20052;-62
2022/07/02 11:11:34;;;;;;;1.85;0.90;;;22.30;99.90;;;;;;5071039;28;20047;-63
2022/07/02 11:14:12;;;;;;;1.00;0.80;;;22.30;99.90;;;;;;5061957;28;20083;-60
2022/07/02 11:16:47;;;;;;;1.75;0.75;;;22.30;99.90;;;;;;5057409;28;20036;-62
2022/07/02 11:19:16;;;;;;;1.83;0.93;;;22.40;99.90;;;;;;5070579;28;20055;-62
2022/07/02 11:21:43;;;;;;;1.08;1.00;;;22.60;99.90;;;;;;5052925;28;20051;-64
2022/07/02 11:24:10;;;;;;;;;;;22.50;99.90;;;;;;5063020;28;20032;-63
2022/07/02 11:26:41;;;;;;;2.38;0.93;;;22.40;99.90;;;;;;5070377;28;19971;-62
2022/07/02 11:29:09;;;;;;;1.52;1.02;;;22.60;99.90;;;;;;5053258;28;20078;-60
2022/07/02 11:31:38;;;;;;;1.27;0.93;;;22.60;99.90;;;;;;5058108;28;20095;-61
2022/07/02 11:34:05;;;;;;;0.77;0.77;;;22.40;99.90;;;;;;5043888;28;20131;-62
2022/07/02 11:36:32;;;;;;;0.80;0.80;;;22.50;99.90;;;;;;5048759;28;20041;-66
2022/07/02 11:38:59;;;;;;;8.32;0.80;;;22.60;99.90;;;;;;5044335;28;20045;-64
2022/07/02 11:41:34;;;;;;;4.60;0.90;;;22.80;99.90;;;;;;5058244;28;20052;-64
2022/07/02 11:44:12;;;;;;;1.27;0.80;;;22.70;99.90;;;;;;5070020;28;20049;-64
2022/07/02 11:46:38;;;;;;;1.52;0.90;;;22.80;99.90;;;;;;5040549;28;20045;-64
2022/07/02 11:49:26;;;;;;;1.35;0.93;;;23.00;99.90;;;;;;5062901;28;20504;-64
2022/07/02 11:51:54;;;;;;;0.90;0.90;;;23.00;99.90;;;;;;5043251;28;20045;-65
2022/07/02 11:54:22;;;;;;;1.45;0.70;;;23.00;99.90;;;;;;5040544;28;20043;-61
2022/07/02 11:56:52;;;;;;;0.60;0.50;;;22.90;99.90;;;;;;5052061;28;20048;-65
2022/07/02 11:59:21;;;;;;;2.58;0.70;;;22.80;99.90;;;;;;5059479;28;20037;-65
2022/07/02 12:01:50;;;;;;;1.83;0.65;;;22.90;99.90;;;;;;5054418;28;20048;-65
2022/07/02 12:04:19;;;;;;;0.82;0.77;;;22.90;99.90;;;;;;5054257;28;20052;-65
2022/07/02 12:06:51;;;;;;;3.45;1.25;;;22.80;99.90;;;;;;5059307;28;20071;-65
2022/07/02 12:09:23;;;;;;;2.85;1.13;;;22.90;99.90;;;;;;5068362;28;20044;-65
2022/07/02 12:11:51;;;;;;;3.17;1.25;;;23.00;99.90;;;;;;5073989;28;20056;-65
2022/07/02 12:14:24;;;;;;;3.33;0.70;;;23.10;99.90;;;;;;5068878;28;20524;-65
2022/07/02 12:16:52;;;;;;;1.30;0.90;;;23.10;99.90;;;;;;5066283;28;20408;-64
2022/07/02 12:19:19;;;;;;;2.20;0.75;;;23.40;99.90;;;;;;5074433;28;20044;-65
2022/07/02 12:21:48;;;;;;;1.13;0.80;;;23.50;99.90;;;;;;5071890;28;20055;-64
2022/07/02 12:24:24;;;;;;;1.20;0.90;;;23.50;99.90;;;;;;5059386;28;20046;-65
2022/07/02 12:26:53;;;;;;;1.40;0.75;;;23.30;99.90;;;;;;5046720;28;20044;-65
2022/07/02 12:32:10;;;;;;;0.88;0.82;;;23.40;99.90;;;;;;5045586;28;20044;-65
2022/07/02 12:35:04;;;;;;;1.35;0.70;;;23.50;99.90;;;;;;5048045;28;20075;-66
2022/07/02 12:37:34;;;;;;;1.70;0.80;;;23.50;99.90;;;;;;5043154;28;20037;-65
2022/07/02 12:40:14;;;;;;;3.17;0.95;;;23.60;99.90;;;;;;5041393;28;20045;-64
2022/07/02 12:42:58;;;;;;;1.65;0.82;;;23.50;99.90;;;;;;5065746;28;20112;-65
2022/07/02 12:45:29;;;;;;;1.23;0.90;;;23.50;99.90;;;;;;5074236;28;20119;-65
2022/07/02 12:47:59;;;;;;;1.10;0.80;;;23.60;99.90;;;;;;5073941;28;20052;-64
2022/07/02 12:50:28;;;;;;;2.13;0.90;;;23.50;99.90;;;;;;5042652;28;20040;-64
2022/07/02 12:52:56;;;;;;;6.43;1.45;;;23.50;99.90;;;;;;5065282;28;20045;-65
2022/07/02 12:55:31;;;;;;;2.28;1.20;;;23.60;99.90;;;;;;5073813;28;20044;-64
2022/07/02 12:58:12;;;;;;;1.25;1.10;;;23.70;99.90;;;;;;5073360;28;20040;-65
2022/07/02 13:00:41;;;;;;;1.52;1.08;;;23.70;99.90;;;;;;5058625;28;20037;-65
2022/07/02 13:03:09;;;;;;;20.20;18.08;;;23.60;99.90;;;;;;5073772;28;20445;-64